createdAt,value
2023-07-03T00:00:13.903Z,7.80
2023-07-03T00:02:41.197Z,7.88
2023-07-03T00:05:10.025Z,8.07
2023-07-03T00:07:38.275Z,7.70
2023-07-03T00:10:06.046Z,7.88
2023-07-03T00:12:33.166Z,6.75
2023-07-03T00:14:59.912Z,14.65
2023-07-03T00:17:26.716Z,8.23
2023-07-03T00:19:53.498Z,8.68
2023-07-03T00:22:22.024Z,8.77
2023-07-03T00:24:48.872Z,7.82
2023-07-03T00:27:15.698Z,7.70
2023-07-03T00:29:42.551Z,6.60
2023-07-03T00:32:09.553Z,8.43
2023-07-03T00:34:36.308Z,9.52
2023-07-03T00:37:03.260Z,6.57
2023-07-03T00:39:30.178Z,10.93
2023-07-03T00:41:56.983Z,10.45
2023-07-03T00:44:24.181Z,9.90
2023-07-03T00:46:52.231Z,6.78
2023-07-03T00:49:21.520Z,8.18
2023-07-03T00:51:53.047Z,10.05
2023-07-03T00:54:19.927Z,8.48
2023-07-03T00:56:46.853Z,9.65
2023-07-03T00:59:14.710Z,7.40
2023-07-03T01:01:54.887Z,8.60
2023-07-03T01:04:28.013Z,8.05
2023-07-03T01:07:02.971Z,8.15
2023-07-03T01:09:39.041Z,15.15
2023-07-03T01:12:07.039Z,9.52
2023-07-03T01:14:35.579Z,8.90
2023-07-03T01:17:03.096Z,9.95
2023-07-03T01:19:33.543Z,8.43
2023-07-03T01:22:08.782Z,6.72
2023-07-03T01:24:46.520Z,9.05
2023-07-03T01:27:16.595Z,10.45
2023-07-03T01:29:45.039Z,10.35
2023-07-03T01:32:13.332Z,9.27
2023-07-03T01:34:46.843Z,8.85
2023-07-03T01:37:15.595Z,10.77
2023-07-03T01:39:46.626Z,8.85
2023-07-03T01:42:14.318Z,10.02
2023-07-03T01:44:41.113Z,11.90
2023-07-03T01:47:13.375Z,8.02
2023-07-03T01:49:40.347Z,8.00
2023-07-03T01:52:15.308Z,6.95
2023-07-03T01:55:04.260Z,9.45
2023-07-03T01:57:47.168Z,7.50
2023-07-03T02:00:21.059Z,7.03
2023-07-03T02:02:53.170Z,8.30
2023-07-03T02:05:24.932Z,9.77
2023-07-03T02:07:58.226Z,9.60
2023-07-03T02:10:25.081Z,10.07
2023-07-03T02:12:51.903Z,9.18
2023-07-03T02:15:18.797Z,8.20
2023-07-03T02:17:46.710Z,9.73
2023-07-03T02:20:15.629Z,9.93
2023-07-03T02:22:43.196Z,8.75
2023-07-03T02:25:13.101Z,12.13
2023-07-03T02:27:43.931Z,10.27
2023-07-03T02:30:11.648Z,10.07
2023-07-03T02:32:40.976Z,8.57
2023-07-03T02:35:09.818Z,8.73
2023-07-03T02:37:37.796Z,10.10
2023-07-03T02:40:11.283Z,8.27
2023-07-03T02:42:38.322Z,11.57
2023-07-03T02:45:06.580Z,9.77
2023-07-03T02:47:35.713Z,10.55
2023-07-03T02:50:04.170Z,7.60
2023-07-03T02:52:31.183Z,9.15
2023-07-03T02:54:58.156Z,10.98
2023-07-03T02:57:25.036Z,10.90
2023-07-03T02:59:51.922Z,10.05
2023-07-03T03:02:19.816Z,10.43
2023-07-03T03:04:48.527Z,12.93
2023-07-03T03:07:15.781Z,9.32
2023-07-03T03:09:42.499Z,8.70
2023-07-03T03:12:10.068Z,9.90
2023-07-03T03:14:37.026Z,10.68
2023-07-03T03:17:04.014Z,13.23
2023-07-03T03:19:30.801Z,11.25
2023-07-03T03:21:57.569Z,9.27
2023-07-03T03:24:24.694Z,10.50
2023-07-03T03:26:51.513Z,9.70
2023-07-03T03:29:18.418Z,11.75
2023-07-03T03:31:45.213Z,10.52
2023-07-03T03:34:13.963Z,9.60
2023-07-03T03:36:41.174Z,10.52
2023-07-03T03:39:07.969Z,10.30
2023-07-03T03:41:34.796Z,10.38
2023-07-03T03:44:01.577Z,10.07
2023-07-03T03:46:28.670Z,9.85
2023-07-03T03:48:55.434Z,8.15
2023-07-03T03:51:22.489Z,7.25
2023-07-03T03:53:49.247Z,10.13
2023-07-03T03:56:16.216Z,8.50
2023-07-03T03:58:43.029Z,9.45
2023-07-03T04:01:09.838Z,10.85
2023-07-03T04:03:36.602Z,8.68
2023-07-03T04:06:03.491Z,12.05
2023-07-03T04:08:30.260Z,9.95
2023-07-03T04:10:57.222Z,7.95
2023-07-03T04:13:24.383Z,13.38
2023-07-03T04:15:54.782Z,8.20
2023-07-03T04:18:23.238Z,11.90
2023-07-03T04:20:50.079Z,9.23
2023-07-03T04:23:17.913Z,9.85
2023-07-03T04:25:45.058Z,9.05
2023-07-03T04:28:13.489Z,9.52
2023-07-03T04:30:40.259Z,8.02
2023-07-03T04:33:07.447Z,10.05
2023-07-03T04:35:34.356Z,10.38
2023-07-03T04:38:02.533Z,8.85
2023-07-03T04:40:30.986Z,9.52
2023-07-03T04:42:58.556Z,9.77
2023-07-03T04:45:27.265Z,7.75
2023-07-03T04:47:54.707Z,9.95
2023-07-03T04:50:26.146Z,10.20
2023-07-03T04:52:55.050Z,9.88
2023-07-03T04:55:23.232Z,9.27
2023-07-03T04:57:50.787Z,11.02
2023-07-03T05:00:20.407Z,8.88
2023-07-03T05:02:49.490Z,13.10
2023-07-03T05:05:17.659Z,14.88
2023-07-03T05:07:45.926Z,9.07
2023-07-03T05:10:14.626Z,12.68
2023-07-03T05:12:41.739Z,11.77
2023-07-03T05:15:09.626Z,11.10
2023-07-03T05:17:39.720Z,12.80
2023-07-03T05:20:13.173Z,11.10
2023-07-03T05:22:41.774Z,12.30
2023-07-03T05:25:10.493Z,8.85
2023-07-03T05:27:38.333Z,10.05
2023-07-03T05:30:06.246Z,10.38
2023-07-03T05:32:33.755Z,12.43
2023-07-03T05:35:03.477Z,11.50
2023-07-03T05:37:30.526Z,9.45
2023-07-03T05:39:57.265Z,9.35
2023-07-03T05:42:24.291Z,8.15
2023-07-03T05:44:51.124Z,12.98
2023-07-03T05:47:18.557Z,16.73
2023-07-03T05:49:45.416Z,11.32
2023-07-03T05:52:12.593Z,10.32
2023-07-03T05:54:39.810Z,10.35
2023-07-03T05:57:08.898Z,13.35
2023-07-03T05:59:37.154Z,9.00
2023-07-03T06:02:06.851Z,11.57
2023-07-03T06:04:34.521Z,10.32
2023-07-03T06:07:02.759Z,9.23
2023-07-03T06:09:30.012Z,7.47
2023-07-03T06:11:57.407Z,7.75
2023-07-03T06:14:24.829Z,10.38
2023-07-03T06:16:53.077Z,10.88
2023-07-03T06:19:21.534Z,11.10
2023-07-03T06:21:48.834Z,10.65
2023-07-03T06:24:16.192Z,10.32
2023-07-03T06:26:51.676Z,12.52
2023-07-03T06:29:18.825Z,11.65
2023-07-03T06:31:45.896Z,9.75
2023-07-03T06:34:12.991Z,9.43
2023-07-03T06:36:39.851Z,9.75
2023-07-03T06:39:09.495Z,10.10
2023-07-03T06:41:39.678Z,12.20
2023-07-03T06:44:10.183Z,8.55
2023-07-03T06:46:36.990Z,11.35
2023-07-03T06:49:03.941Z,9.52
2023-07-03T06:51:30.760Z,12.48
2023-07-03T06:53:57.821Z,9.35
2023-07-03T06:56:25.027Z,11.02
2023-07-03T06:58:52.137Z,12.25
2023-07-03T07:01:24.730Z,13.18
2023-07-03T07:03:52.080Z,9.35
2023-07-03T07:06:21.414Z,10.45
2023-07-03T07:08:48.414Z,8.88
2023-07-03T07:11:18.132Z,7.95
2023-07-03T07:13:46.819Z,8.23
2023-07-03T07:16:28.251Z,10.30
2023-07-03T07:18:57.597Z,9.35
2023-07-03T07:21:25.105Z,9.98
2023-07-03T07:23:54.815Z,13.00
2023-07-03T07:26:22.966Z,7.85
2023-07-03T07:28:49.795Z,9.27
2023-07-03T07:31:25.348Z,12.85
2023-07-03T07:33:52.873Z,9.18
2023-07-03T07:36:22.346Z,10.98
2023-07-03T07:38:56.290Z,10.63
2023-07-03T07:41:26.360Z,9.93
2023-07-03T07:43:54.794Z,13.30
2023-07-03T07:46:26.600Z,11.10
2023-07-03T07:49:01.401Z,10.13
2023-07-03T07:51:28.680Z,10.07
2023-07-03T07:53:56.714Z,8.45
2023-07-03T07:56:24.519Z,9.50
2023-07-03T07:58:51.777Z,13.77
2023-07-03T08:01:19.062Z,11.95
2023-07-03T08:03:46.352Z,8.32
2023-07-03T08:06:14.808Z,10.68
2023-07-03T08:08:41.690Z,10.25
2023-07-03T08:11:10.541Z,11.15
2023-07-03T08:13:38.914Z,9.07
2023-07-03T08:16:06.259Z,11.27
2023-07-03T08:18:33.211Z,11.70
2023-07-03T08:21:00.013Z,11.88
2023-07-03T08:23:26.977Z,9.52
2023-07-03T08:25:56.303Z,10.48
2023-07-03T08:28:23.781Z,9.23
2023-07-03T08:30:50.954Z,11.50
2023-07-03T08:33:17.953Z,10.35
2023-07-03T08:38:15.212Z,8.18
2023-07-03T08:40:43.392Z,9.45
2023-07-03T08:43:20.071Z,10.57
2023-07-03T08:45:50.458Z,8.07
2023-07-03T08:48:25.081Z,9.52
2023-07-03T08:50:59.419Z,7.93
2023-07-03T08:53:33.805Z,9.63
2023-07-03T08:56:06.768Z,9.32
2023-07-03T08:58:33.584Z,10.18
2023-07-03T09:01:28.671Z,7.30
2023-07-03T09:04:22.393Z,8.50
2023-07-03T09:07:02.609Z,7.72
2023-07-03T09:09:50.904Z,11.13
2023-07-03T09:12:38.209Z,9.45
2023-07-03T09:15:30.914Z,9.77
2023-07-03T09:18:00.619Z,8.23
2023-07-03T09:20:29.677Z,8.00
2023-07-03T09:23:22.337Z,8.13
2023-07-03T09:26:02.335Z,6.57
2023-07-03T09:28:36.284Z,6.18
2023-07-03T09:31:04.701Z,6.85
2023-07-03T09:33:32.520Z,5.22
2023-07-03T09:36:05.290Z,8.65
2023-07-03T09:38:36.966Z,7.10
2023-07-03T09:41:05.936Z,6.15
2023-07-03T09:43:32.928Z,8.77
2023-07-03T09:46:13.596Z,6.80
2023-07-03T09:48:40.673Z,6.97
2023-07-03T09:51:19.982Z,7.22
2023-07-03T09:53:46.989Z,7.30
2023-07-03T09:56:18.752Z,6.60
2023-07-03T09:58:49.100Z,9.05
2023-07-03T10:06:40.863Z,9.77
2023-07-03T10:11:57.777Z,8.65
2023-07-03T10:14:31.937Z,9.82
2023-07-03T10:17:00.852Z,9.30
2023-07-03T10:19:29.117Z,10.15
2023-07-03T10:21:56.259Z,9.75
2023-07-03T10:24:23.268Z,6.53
2023-07-03T10:26:54.588Z,8.25
2023-07-03T10:29:29.647Z,7.70
2023-07-03T10:32:01.711Z,7.15
2023-07-03T10:34:53.269Z,6.45
2023-07-03T10:37:22.162Z,7.05
2023-07-03T10:40:05.725Z,7.47
2023-07-03T10:45:09.180Z,7.72
2023-07-03T10:47:48.313Z,7.45
2023-07-03T10:50:18.264Z,8.13
2023-07-03T10:52:57.509Z,7.78
2023-07-03T10:55:34.522Z,6.93
2023-07-03T10:58:15.788Z,8.25
2023-07-03T11:01:05.704Z,9.13
2023-07-03T11:03:43.909Z,7.18
2023-07-03T11:06:22.905Z,6.53
2023-07-03T11:08:58.732Z,7.65
2023-07-03T11:11:41.561Z,8.35
2023-07-03T11:14:18.652Z,7.38
2023-07-03T11:17:12.754Z,8.25
2023-07-03T11:19:54.710Z,5.97
2023-07-03T11:25:24.485Z,7.03
2023-07-03T11:28:15.850Z,8.82
2023-07-03T11:30:43.655Z,6.40
2023-07-03T11:33:11.614Z,6.65
2023-07-03T11:35:51.569Z,6.03
2023-07-03T11:40:56.391Z,11.20
2023-07-03T11:43:48.664Z,8.45
2023-07-03T11:46:23.054Z,5.22
2023-07-03T11:48:56.913Z,4.82
2023-07-03T11:51:36.005Z,3.83
2023-07-03T11:54:18.288Z,6.85
2023-07-03T11:56:50.306Z,7.47
2023-07-03T11:59:18.625Z,5.28
2023-07-03T12:01:45.528Z,6.75
2023-07-03T12:04:12.289Z,6.93
2023-07-03T12:06:42.245Z,4.55
2023-07-03T12:09:33.302Z,6.18
2023-07-03T12:12:08.889Z,3.72
2023-07-03T12:14:41.991Z,6.00
2023-07-03T12:17:36.204Z,4.40
2023-07-03T12:20:11.944Z,4.20
2023-07-03T12:22:46.321Z,4.22
2023-07-03T12:25:20.745Z,3.60
2023-07-03T12:27:48.784Z,4.70
2023-07-03T12:30:25.438Z,3.50
2023-07-03T12:32:54.642Z,3.28
2023-07-03T12:35:33.840Z,2.95
2023-07-03T12:38:06.331Z,2.13
2023-07-03T12:40:34.055Z,4.93
2023-07-03T12:43:01.128Z,5.47
2023-07-03T12:45:29.886Z,5.40
2023-07-03T12:48:19.708Z,3.88
2023-07-03T12:50:50.915Z,3.95
2023-07-03T12:53:20.122Z,5.90
2023-07-03T12:55:52.879Z,6.43
2023-07-03T12:58:20.908Z,3.20
2023-07-03T13:01:08.337Z,2.90
2023-07-03T13:03:43.127Z,4.82
2023-07-03T13:06:30.497Z,3.83
2023-07-03T13:08:58.447Z,3.22
2023-07-03T13:11:45.698Z,3.53
2023-07-03T13:14:15.671Z,2.13
2023-07-03T13:16:44.952Z,5.40
2023-07-03T13:19:11.881Z,3.40
2023-07-03T13:21:40.431Z,5.05
2023-07-03T13:24:14.364Z,3.90
2023-07-03T13:26:42.759Z,4.40
2023-07-03T13:29:10.677Z,3.65
2023-07-03T13:31:50.608Z,4.65
2023-07-03T13:34:22.527Z,2.78
2023-07-03T13:37:03.624Z,7.20
2023-07-03T13:39:34.053Z,3.08
2023-07-03T13:42:01.042Z,4.88
2023-07-03T13:44:28.148Z,3.67
2023-07-03T13:46:55.908Z,3.13
2023-07-03T13:49:22.972Z,3.10
2023-07-03T13:51:51.428Z,2.70
2023-07-03T13:54:18.595Z,3.28
2023-07-03T13:56:46.150Z,3.42
2023-07-03T13:59:13.526Z,2.28
2023-07-03T14:01:42.168Z,1.95
2023-07-03T14:04:10.429Z,3.83
2023-07-03T14:06:37.443Z,3.45
2023-07-03T14:09:05.278Z,3.58
2023-07-03T14:11:32.273Z,3.22
2023-07-03T14:13:59.649Z,3.47
2023-07-03T14:16:26.744Z,3.95
2023-07-03T14:21:30.277Z,5.43
2023-07-03T14:23:59.435Z,4.32
2023-07-03T14:26:28.238Z,5.68
2023-07-03T14:28:57.637Z,3.72
2023-07-03T14:31:25.092Z,2.88
2023-07-03T14:33:51.876Z,4.00
2023-07-03T14:36:18.786Z,3.45
2023-07-03T14:38:45.812Z,4.60
2023-07-03T14:41:12.624Z,3.63
2023-07-03T14:43:39.434Z,3.35
2023-07-03T14:46:08.145Z,2.45
2023-07-03T14:48:34.934Z,2.45
2023-07-03T14:51:01.846Z,3.38
2023-07-03T14:53:28.725Z,4.63
2023-07-03T14:55:57.121Z,3.22
2023-07-03T14:58:23.990Z,5.82
2023-07-03T15:00:51.408Z,3.20
2023-07-03T15:03:18.309Z,4.85
2023-07-03T15:05:47.282Z,6.03
2023-07-03T15:08:15.445Z,2.17
2023-07-03T15:10:42.541Z,3.75
2023-07-03T15:13:09.746Z,5.35
2023-07-03T15:15:36.776Z,3.83
2023-07-03T15:18:04.808Z,3.85
2023-07-03T15:20:32.485Z,3.88
2023-07-03T15:22:59.314Z,2.20
2023-07-03T15:25:26.077Z,4.32
2023-07-03T15:27:52.997Z,3.78
2023-07-03T15:30:19.815Z,4.35
2023-07-03T15:32:54.034Z,3.05
2023-07-03T15:35:21.848Z,6.18
2023-07-03T15:37:49.089Z,2.30
2023-07-03T15:40:16.050Z,4.47
2023-07-03T15:42:44.927Z,7.85
2023-07-03T15:45:11.972Z,3.13
2023-07-03T15:47:39.487Z,4.45
2023-07-03T15:50:07.211Z,4.75
2023-07-03T15:52:34.305Z,4.97
2023-07-03T15:55:01.328Z,4.25
2023-07-03T15:57:28.293Z,4.95
2023-07-03T15:59:55.302Z,4.90
2023-07-03T16:02:22.343Z,4.13
2023-07-03T16:04:49.257Z,4.72
2023-07-03T16:07:16.225Z,4.50
2023-07-03T16:09:43.087Z,3.05
2023-07-03T16:12:09.957Z,4.32
2023-07-03T16:14:36.900Z,4.65
2023-07-03T16:17:04.235Z,3.92
2023-07-03T16:19:31.175Z,5.95
2023-07-03T16:21:58.278Z,2.55
2023-07-03T16:24:25.148Z,2.05
2023-07-03T16:26:51.904Z,3.30
2023-07-03T16:29:18.803Z,4.28
2023-07-03T16:31:46.617Z,3.47
2023-07-03T16:34:13.934Z,6.10
2023-07-03T16:36:41.073Z,3.45
2023-07-03T16:39:08.625Z,3.08
2023-07-03T16:41:39.532Z,3.35
2023-07-03T16:44:06.550Z,3.00
2023-07-03T16:46:35.238Z,2.60
2023-07-03T16:49:03.854Z,3.00
2023-07-03T16:51:30.695Z,3.25
2023-07-03T16:53:57.763Z,3.55
2023-07-03T16:56:28.139Z,2.22
2023-07-03T16:58:58.322Z,4.00
2023-07-03T17:01:27.973Z,3.63
2023-07-03T17:03:56.845Z,4.25
2023-07-03T17:06:27.780Z,3.33
2023-07-03T17:08:55.787Z,4.43
2023-07-03T17:11:22.973Z,2.80
2023-07-03T17:13:50.475Z,3.60
2023-07-03T17:16:18.575Z,4.05
2023-07-03T17:18:49.601Z,3.90
2023-07-03T17:21:19.540Z,4.30
2023-07-03T17:23:48.355Z,3.33
2023-07-03T17:26:15.344Z,6.07
2023-07-03T17:28:42.282Z,3.42
2023-07-03T17:31:09.484Z,4.28
2023-07-03T17:33:36.600Z,3.15
2023-07-03T17:36:03.614Z,4.47
2023-07-03T17:38:34.730Z,2.50
2023-07-03T17:41:02.787Z,3.60
2023-07-03T17:43:29.686Z,2.63
2023-07-03T17:45:56.526Z,3.22
2023-07-03T17:48:23.559Z,2.83
2023-07-03T17:50:51.043Z,3.67
2023-07-03T17:53:22.840Z,3.42
2023-07-03T17:55:50.694Z,3.05
2023-07-03T17:58:18.936Z,2.83
2023-07-03T18:00:45.651Z,2.88
2023-07-03T18:03:13.408Z,4.50
2023-07-03T18:05:40.382Z,13.45
2023-07-03T18:08:07.489Z,18.92
2023-07-03T18:10:35.621Z,3.33
2023-07-03T18:13:02.744Z,3.63
2023-07-03T18:15:43.475Z,2.78
2023-07-03T18:18:11.150Z,6.38
2023-07-03T18:20:38.389Z,12.88
2023-07-03T18:23:05.244Z,5.82
2023-07-03T18:25:35.778Z,5.82
2023-07-03T18:28:03.043Z,4.00
2023-07-03T18:30:30.911Z,4.65
2023-07-03T18:32:57.770Z,3.60
2023-07-03T18:35:24.587Z,4.80
2023-07-03T18:37:51.394Z,4.45
2023-07-03T18:40:18.958Z,3.05
2023-07-03T18:42:45.811Z,2.72
2023-07-03T18:45:12.647Z,3.33
2023-07-03T18:47:40.636Z,5.25
2023-07-03T18:50:08.425Z,3.83
2023-07-03T18:52:35.292Z,4.15
2023-07-03T18:55:02.121Z,4.72
2023-07-03T18:57:29.111Z,4.32
2023-07-03T18:59:55.891Z,4.80
2023-07-03T19:02:22.726Z,7.28
2023-07-03T19:04:49.847Z,5.22
2023-07-03T19:07:16.620Z,3.38
2023-07-03T19:09:43.786Z,3.33
2023-07-03T19:12:10.614Z,3.95
2023-07-03T19:14:37.561Z,2.65
2023-07-03T19:17:04.994Z,2.70
2023-07-03T19:19:32.009Z,3.85
2023-07-03T19:22:01.349Z,3.53
2023-07-03T19:24:28.840Z,3.60
2023-07-03T19:26:56.001Z,3.00
2023-07-03T19:29:22.867Z,4.63
2023-07-03T19:31:49.768Z,5.25
2023-07-03T19:34:16.524Z,4.63
2023-07-03T19:36:44.050Z,6.28
2023-07-03T19:39:11.136Z,3.33
2023-07-03T19:41:40.603Z,4.10
2023-07-03T19:44:08.370Z,2.88
2023-07-03T19:46:35.609Z,5.25
2023-07-03T19:49:03.562Z,2.65
2023-07-03T19:51:30.620Z,4.75
2023-07-03T19:53:57.734Z,6.28
2023-07-03T19:56:24.602Z,4.68
2023-07-03T19:58:51.556Z,3.70
2023-07-03T20:01:18.863Z,4.70
2023-07-03T20:03:46.073Z,7.50
2023-07-03T20:06:20.101Z,3.42
2023-07-03T20:08:47.539Z,4.20
2023-07-03T20:11:14.633Z,4.68
2023-07-03T20:13:41.536Z,6.43
2023-07-03T20:16:09.098Z,5.97
2023-07-03T20:18:35.953Z,6.00
2023-07-03T20:21:07.556Z,5.03
2023-07-03T20:26:02.399Z,3.03
2023-07-03T20:28:29.115Z,6.72
2023-07-03T20:30:56.426Z,4.53
2023-07-03T20:33:23.500Z,4.78
2023-07-03T20:36:03.370Z,5.93
2023-07-03T20:38:30.978Z,6.22
2023-07-03T20:41:00.931Z,4.82
2023-07-03T20:43:28.290Z,5.18
2023-07-03T20:46:02.008Z,7.05
2023-07-03T20:48:29.654Z,3.88
2023-07-03T20:51:03.335Z,4.40
2023-07-03T20:53:40.877Z,3.42
2023-07-03T20:56:09.471Z,3.75
2023-07-03T20:58:37.646Z,5.47
2023-07-03T21:01:16.529Z,4.05
2023-07-03T21:03:45.551Z,6.15
2023-07-03T21:06:16.843Z,5.68
2023-07-03T21:08:44.912Z,4.43
2023-07-03T21:11:17.557Z,3.33
2023-07-03T21:13:46.727Z,4.97
2023-07-03T21:16:16.205Z,6.10
2023-07-03T21:18:43.239Z,5.03
2023-07-03T21:21:13.894Z,5.55
2023-07-03T21:23:41.291Z,5.22
2023-07-03T21:26:09.757Z,8.13
2023-07-03T21:28:37.624Z,6.95
2023-07-03T21:31:05.224Z,4.75
2023-07-03T21:33:34.001Z,4.10
2023-07-03T21:36:08.295Z,7.50
2023-07-03T21:38:36.499Z,6.63
2023-07-03T21:41:03.369Z,4.97
2023-07-03T21:43:30.189Z,4.88
2023-07-03T21:46:08.872Z,7.28
2023-07-03T21:48:37.984Z,6.72
2023-07-03T21:51:05.943Z,3.92
2023-07-03T21:53:36.671Z,6.18
2023-07-03T21:56:08.197Z,4.50
2023-07-03T22:01:05.051Z,5.47
2023-07-03T22:03:33.361Z,10.55
2023-07-03T22:06:00.377Z,6.45
2023-07-03T22:08:27.263Z,7.53
2023-07-03T22:10:53.973Z,5.03
2023-07-03T22:13:21.020Z,4.30
2023-07-03T22:15:47.882Z,5.05
2023-07-03T22:18:16.042Z,6.75
2023-07-03T22:20:44.015Z,6.05
2023-07-03T22:23:12.356Z,5.03
2023-07-03T22:25:39.176Z,8.30
2023-07-03T22:28:06.484Z,5.28
2023-07-03T22:30:33.327Z,5.30
2023-07-03T22:33:00.244Z,5.03
2023-07-03T22:35:27.128Z,6.80
2023-07-03T22:37:54.593Z,7.68
2023-07-03T22:40:21.771Z,7.05
2023-07-03T22:42:48.504Z,5.82
2023-07-03T22:45:15.340Z,6.13
2023-07-03T22:47:42.231Z,5.75
2023-07-03T22:50:09.519Z,7.35
2023-07-03T22:52:36.681Z,4.80
2023-07-03T22:55:07.514Z,5.00
2023-07-03T22:57:35.187Z,5.80
2023-07-03T23:00:05.010Z,6.55
2023-07-03T23:02:33.062Z,8.35
2023-07-03T23:05:00.323Z,5.63
2023-07-03T23:07:27.623Z,5.18
2023-07-03T23:09:54.664Z,6.55
2023-07-03T23:12:21.800Z,6.28
2023-07-03T23:14:49.504Z,5.60
2023-07-03T23:17:26.393Z,3.70
2023-07-03T23:19:54.939Z,6.60
2023-07-03T23:22:22.810Z,7.28
2023-07-03T23:24:53.715Z,6.78
2023-07-03T23:27:21.222Z,5.13
2023-07-03T23:29:48.608Z,6.57
2023-07-03T23:32:16.089Z,7.85
2023-07-03T23:34:43.569Z,7.78
2023-07-03T23:37:10.544Z,5.10
2023-07-03T23:39:38.229Z,4.95
2023-07-03T23:42:09.131Z,7.35
2023-07-03T23:44:37.292Z,7.75
2023-07-03T23:47:04.512Z,7.47
2023-07-03T23:49:31.487Z,5.25
2023-07-03T23:51:58.609Z,7.47
2023-07-03T23:54:25.513Z,6.25
2023-07-03T23:56:53.205Z,7.00
2023-07-03T23:59:20.618Z,6.85
